• Join FlightAware (Why Join?)
  • Login
  • US Flag 
03:54PM EDT


 

Airport Tracker/Info


-or-


 

Live Flight TrackerFlight Track Log ✈ AAL963 ✈ 07-Sep-2013 ✈ KDFW - SBGR / GRU

Flight Track Log - Related Links

Times and Time Zones

All times are in EDT time to prevent confusion due to time zone crossing. See the AAL963 flight status page for this flight to view local times or setup timezone preferences in your user account.

Time Position Orientation Groundspeed Altitude Reporting Facility
EDT Latitude Longitude Course Direction KTS MPH feet Rate Location/Type
09:04PM 32.8750 -97.0310 182° South 185 213 1,400  Level FlightAware
09:04PM 32.8560 -97.0270 170° South 189 217 2,200 1,500 Climbing FlightAware
09:05PM 32.8380 -97.0220 167° South 219 252 2,400 720 Climbing FlightAware
09:05PM 32.8170 -97.0150 164° South 241 277 2,700 1,140 Climbing FlightAware
09:05PM 32.8000 -97.0100 166° South 256 295 3,100 1,980 Climbing FlightAware
09:05PM 32.7760 -97.0030 166° South 262 302 3,900 2,520 Climbing FlightAware
09:06PM 32.7500 -96.9950 165° South 265 305 4,900 2,700 Climbing FlightAware
09:06PM 32.7250 -96.9880 167° South 267 307 5,800 2,520 Climbing FlightAware
09:06PM 32.7000 -96.9800 165° South 271 312 6,600 2,400 Climbing FlightAware
09:07PM 32.6770 -96.9710 162° South 274 315 7,400 2,460 Climbing FlightAware
09:07PM 32.6600 -96.9640 161° South 277 319 8,000 2,460 Climbing FlightAware
09:07PM 32.6330 -96.9530 161° South 282 325 8,900 2,400 Climbing FlightAware
09:08PM 32.6070 -96.9430 162° South 290 334 9,700 1,980 Climbing FlightAware
09:08PM 32.5590 -96.9240 162° South 310 357 10,800 1,260 Climbing FlightAware
09:09PM 32.5060 -96.9030 162° South 354 407 11,300 960 Climbing FlightAware
09:10PM 32.4470 -96.8790 161° South 386 444 12,000 1,620 Climbing FlightAware
09:10PM 32.3940 -96.8590 162° South 397 457 13,100 2,160 Climbing FlightAware
09:11PM 32.3390 -96.8370 161° South 402 463 14,300 2,220 Climbing FlightAware
09:11PM 32.2670 -96.8087 162° South 408 470 15,800 2,160 Climbing FlightAware ADS-B
09:12PM 32.2121 -96.7877 162° South 417 480 16,800 1,980 Climbing FlightAware ADS-B
09:12PM 32.1360 -96.7590 162° South 424 488 18,200 2,100 Climbing FlightAware
09:13PM 32.0951 -96.7435 162° South 429 494 19,000 2,220 Climbing FlightAware ADS-B
09:13PM 32.0370 -96.7213 162° South 431 496 20,100 1,980 Climbing FlightAware ADS-B
09:14PM 31.9786 -96.6991 162° South 436 502 21,100 1,740 Climbing FlightAware ADS-B
09:14PM 31.9195 -96.6767 162° South 445 512 21,900 1,560 Climbing FlightAware ADS-B
09:15PM 31.8593 -96.6537 162° South 453 521 22,700 1,440 Climbing FlightAware ADS-B
09:15PM 31.7970 -96.6280 161° South 461 531 23,400 1,380 Climbing FlightAware ADS-B
09:16PM 31.7305 -96.6002 160° South 468 539 24,200 1,500 Climbing FlightAware ADS-B
09:16PM 31.6655 -96.5736 161° South 476 548 25,000 1,500 Climbing FlightAware ADS-B
09:17PM 31.6000 -96.5469 161° South 481 554 25,800 1,320 Climbing FlightAware ADS-B
09:17PM 31.5356 -96.5208 161° South 489 563 26,400 1,260 Climbing FlightAware ADS-B
09:18PM 31.4705 -96.4952 161° South 494 568 27,100 1,320 Climbing FlightAware ADS-B
09:18PM 31.4032 -96.4704 163° South 497 572 27,800 1,260 Climbing FlightAware ADS-B
09:19PM 31.3367 -96.4458 162° South 503 579 28,400 1,260 Climbing FlightAware ADS-B
09:19PM 31.2678 -96.4203 162° South 507 583 29,100 1,200 Climbing FlightAware ADS-B
09:20PM 31.2185 -96.4016 162° South 509 586 29,500 960 Climbing FlightAware ADS-B
09:20PM 31.1890 -96.3849 154° Southeast 514 592 29,700 1,020 Climbing FlightAware ADS-B
09:20PM 31.1712 -96.3713 147° Southeast 517 595 29,900 1,260 Climbing FlightAware ADS-B
09:20PM 31.1458 -96.3459 139° Southeast 517 595 30,200 1,500 Climbing FlightAware ADS-B
09:21PM 31.1249 -96.3175 131° Southeast 517 595 30,600 1,620 Climbing FlightAware ADS-B
09:21PM 31.0830 -96.2498 126° Southeast 515 593 31,400 1,560 Climbing FlightAware ADS-B
09:22PM 31.0410 -96.1810 125° Southeast 512 589 32,200 1,440 Climbing FlightAware ADS-B
09:22PM 30.9995 -96.1130 125° Southeast 508 585 32,900 780 Climbing FlightAware ADS-B
09:23PM 30.9581 -96.0454 126° Southeast 504 580 33,000 60 Climbing FlightAware ADS-B
09:23PM 30.9172 -95.9792 126° Southeast 505 581 33,000  Level FlightAware ADS-B
09:24PM 30.8752 -95.9114 126° Southeast 505 581 33,000  Level FlightAware ADS-B
09:24PM 30.8341 -95.8452 126° Southeast 506 582 33,000  Level FlightAware ADS-B
09:25PM 30.7921 -95.7777 126° Southeast 505 581 33,000  Level FlightAware ADS-B
09:25PM 30.7613 -95.7314 128° Southeast 504 580 33,000  Level FlightAware ADS-B
09:25PM 30.7486 -95.7141 131° Southeast 504 580 33,000  Level FlightAware ADS-B
09:26PM 30.7170 -95.6745 133° Southeast 506 582 33,000  Level FlightAware ADS-B
09:26PM 30.6657 -95.6170 136° Southeast 506 582 33,000  Level FlightAware ADS-B
09:27PM 30.6135 -95.5597 137° Southeast 506 582 33,000  Level FlightAware ADS-B
09:27PM 30.5618 -95.5030 137° Southeast 506 582 33,000  Level FlightAware ADS-B
09:28PM 30.5029 -95.4385 137° Southeast 506 582 33,000  Level FlightAware ADS-B
09:28PM 30.4515 -95.3820 137° Southeast 506 582 33,000  Level FlightAware ADS-B
09:29PM 30.4001 -95.3258 137° Southeast 507 583 33,000  Level FlightAware ADS-B
09:29PM 30.3481 -95.2690 137° Southeast 509 586 33,000  Level FlightAware ADS-B
09:30PM 30.2961 -95.2122 137° Southeast 509 586 33,000  Level FlightAware ADS-B
09:30PM 30.2421 -95.1533 137° Southeast 509 586 33,000  Level FlightAware ADS-B
09:31PM 30.1902 -95.0968 137° Southeast 510 587 33,000  Level FlightAware ADS-B
09:31PM 30.1381 -95.0404 137° Southeast 509 586 33,000  Level FlightAware ADS-B
09:32PM 30.0862 -94.9841 137° Southeast 507 583 33,000  Level FlightAware ADS-B
09:32PM 30.0350 -94.9286 137° Southeast 505 581 33,000  Level FlightAware ADS-B
09:33PM 29.9835 -94.8729 137° Southeast 504 580 33,000  Level FlightAware ADS-B
09:33PM 29.9324 -94.8177 137° Southeast 504 580 33,000  Level FlightAware ADS-B
09:34PM 29.8808 -94.7622 137° Southeast 504 580 33,000  Level FlightAware ADS-B
09:34PM 29.8292 -94.7067 137° Southeast 506 582 33,000  Level FlightAware ADS-B
09:35PM 29.7770 -94.6507 137° Southeast 512 589 33,000  Level FlightAware ADS-B
09:35PM 29.7232 -94.5929 137° Southeast 514 592 33,000  Level FlightAware ADS-B
09:36PM 29.6711 -94.5371 137° Southeast 514 592 33,000  Level FlightAware ADS-B
09:36PM 29.6184 -94.4807 137° Southeast 514 592 33,000  Level FlightAware ADS-B
09:37PM 29.5656 -94.4243 137° Southeast 512 589 33,000  Level FlightAware ADS-B
09:37PM 29.5135 -94.3688 137° Southeast 512 589 33,000  Level FlightAware ADS-B
09:38PM 29.4612 -94.3131 137° Southeast 510 587 33,000  Level FlightAware ADS-B
09:38PM 29.4083 -94.2568 137° Southeast 511 588 33,000  Level FlightAware ADS-B
09:39PM 29.3540 -94.1989 137° Southeast 509 586 33,000  Level FlightAware ADS-B
09:39PM 29.3013 -94.1429 137° Southeast 509 586 33,000  Level FlightAware ADS-B
09:40PM 29.2489 -94.0873 137° Southeast 510 587 33,000  Level FlightAware ADS-B
09:40PM 29.1970 -94.0322 137° Southeast 512 589 33,000  Level FlightAware ADS-B
09:41PM 29.1435 -93.9755 137° Southeast 513 590 33,000  Level FlightAware ADS-B
09:42PM 29.1110 -93.9250 126° Southeast 510 587 33,000  Level FlightAware
09:42PM 29.0570 -93.8660 136° Southeast 510 587 33,000  Level FlightAware
09:43PM 29.0020 -93.8050 136° Southeast 510 587 33,000  Level FlightAware
09:44PM 28.9500 -93.7480 136° Southeast 510 587 33,000  Level FlightAware
09:44PM 28.8980 -93.6910 136° Southeast 510 587 33,000  Level FlightAware
09:45PM 28.8470 -93.6340 136° Southeast 510 587 33,000  Level FlightAware
09:46PM 28.7930 -93.5750 136° Southeast 510 587 33,000  Level FlightAware
09:46PM 28.7410 -93.5170 136° Southeast 510 587 33,000  Level FlightAware
09:47PM 28.6890 -93.4600 136° Southeast 510 587 33,000  Level FlightAware
09:47PM 28.6370 -93.4030 136° Southeast 510 587 33,000  Level FlightAware
09:48PM 28.3692 -93.1658 136° Southeast 505 581 33,000 -60 Level Houston Center
09:49PM 28.2656 -93.0572 137° Southeast 507 583 32,900 -60 Descending Houston Center
09:50PM 28.1611 -92.9503 138° Southeast 507 583 32,900  Level Houston Center
09:56PM 27.5668 -92.3437 138° Southeast 508 585 33,000  Climbing FlightAware ADS-B
10:03PM 26.8941 -91.7151 144° Southeast  Level FlightAware Approximate
10:04PM 26.7852 -91.6282 145° Southeast  Level FlightAware Approximate
10:05PM 26.6761 -91.5415 145° Southeast  Level FlightAware Approximate
10:06PM 26.5671 -91.4549 145° Southeast  Level FlightAware Approximate
10:07PM 26.4579 -91.3686 145° Southeast  Level FlightAware Approximate
10:08PM 26.3487 -91.2823 145° Southeast  Level FlightAware Approximate
10:09PM 26.2390 -91.1971 145° Southeast  Level FlightAware Approximate
10:10PM 26.1293 -91.1119 145° Southeast  Level FlightAware Approximate
10:11PM 26.0194 -91.0269 145° Southeast  Level FlightAware Approximate
10:12PM 25.9096 -90.9421 145° Southeast  Level FlightAware Approximate
10:13PM 25.7999 -90.8571 145° Southeast  Level FlightAware Approximate
10:14PM 25.6907 -90.7714 145° Southeast  Level FlightAware Approximate
10:15PM 25.5814 -90.6859 145° Southeast  Level FlightAware Approximate
10:16PM 25.4721 -90.6005 145° Southeast  Level FlightAware Approximate
10:17PM 25.3627 -90.5153 145° Southeast  Level FlightAware Approximate
10:18PM 25.2533 -90.4303 145° Southeast  Level FlightAware Approximate
10:19PM 25.1438 -90.3454 145° Southeast  Level FlightAware Approximate
10:20PM 25.0342 -90.2607 145° Southeast  Level FlightAware Approximate
10:21PM 24.9247 -90.1761 145° Southeast  Level FlightAware Approximate
10:22PM 24.8151 -90.0916 145° Southeast  Level FlightAware Approximate
10:23PM 24.7054 -90.0073 145° Southeast  Level FlightAware Approximate
10:24PM 24.5957 -89.9232 145° Southeast  Level FlightAware Approximate
10:25PM 24.4871 -89.8371 138° Southeast  Level FlightAware Approximate
10:25PM 24.2880 -89.6910 138° Southeast 509 586 33,000  Level FlightAware
10:26PM 24.2360 -89.6510 145° Southeast 507 583 33,000  Level FlightAware
10:26PM 24.1660 -89.5990 146° Southeast 509 586 33,000  Level FlightAware
10:27PM 24.0980 -89.5480 146° Southeast 508 585 33,000  Level FlightAware
10:28PM 24.0060 -89.4780 145° Southeast 509 586 33,000  Level FlightAware
10:28PM 23.9390 -89.4280 146° Southeast 509 586 33,000  Level FlightAware
10:29PM 23.8480 -89.3590 145° Southeast 508 585 33,000  Level FlightAware
10:29PM 23.7860 -89.3130 146° Southeast 506 582 33,000  Level FlightAware
10:30PM 23.7040 -89.2520 146° Southeast 503 579 33,000  Level FlightAware
10:31PM 23.6320 -89.1970 145° Southeast 503 579 33,000  Level FlightAware
10:31PM 23.5660 -89.1480 146° Southeast 505 581 33,000  Level FlightAware
10:32PM 23.4960 -89.0960 146° Southeast 504 580 33,000  Level FlightAware
10:33PM 23.4270 -89.0440 145° Southeast 504 580 33,000  Level FlightAware
10:33PM 23.3610 -88.9950 146° Southeast 504 580 33,000  Level FlightAware
10:34PM 23.2900 -88.9420 146° Southeast 506 582 33,000  Level FlightAware
10:34PM 23.2200 -88.8890 145° Southeast 506 582 33,000  Level FlightAware
10:35PM 23.1380 -88.8280 146° Southeast 504 580 33,000  Level FlightAware
10:36PM 23.0710 -88.7780 146° Southeast 504 580 33,000  Level FlightAware
10:36PM 22.9970 -88.7240 146° Southeast 502 578 33,000  Level FlightAware
10:37PM 22.9400 -88.6820 146° Southeast 504 580 33,000  Level FlightAware
10:37PM 22.8660 -88.6270 146° Southeast 505 581 33,000  Level FlightAware
10:38PM 22.7840 -88.5660 146° Southeast 506 582 33,000  Level FlightAware
10:39PM 22.6740 -88.4850 146° Southeast 503 579 33,000  Level FlightAware
10:39PM 22.6050 -88.4320 145° Southeast 504 580 33,000  Level FlightAware
10:40PM 22.5490 -88.3800 139° Southeast 506 582 33,000  Level FlightAware
10:40PM 22.4870 -88.3170 137° Southeast 503 579 33,000  Level FlightAware
10:41PM 22.4630 -88.2920 136° Southeast 503 579 33,000  Level FlightAware
10:42PM 22.3930 -88.2210 137° Southeast 504 580 33,000  Level FlightAware
10:42PM 22.3410 -88.1690 137° Southeast 505 581 33,000  Level FlightAware
10:43PM 22.2810 -88.1070 136° Southeast 506 582 33,000  Level FlightAware
10:43PM 22.2250 -88.0500 137° Southeast 506 582 33,000  Level FlightAware
10:44PM 22.1630 -87.9880 137° Southeast 504 580 33,000  Level FlightAware
10:45PM 22.0960 -87.9200 137° Southeast 504 580 33,000  Level FlightAware
10:45PM 22.0460 -87.8700 137° Southeast 505 581 33,000  Level FlightAware
10:46PM 21.9740 -87.7980 137° Southeast 503 579 33,000  Level FlightAware
10:46PM 21.9190 -87.7420 137° Southeast 503 579 33,000  Level FlightAware
10:47PM 21.8610 -87.6840 137° Southeast 503 579 33,000  Level FlightAware
10:48PM 21.8040 -87.6270 137° Southeast 505 581 33,000  Level FlightAware
10:48PM 21.7380 -87.5620 138° Southeast 507 583 33,000  Level FlightAware
10:49PM 21.6870 -87.5120 138° Southeast 508 585 33,000  Level FlightAware
10:49PM 21.5750 -87.4000 137° Southeast 509 586 33,000  Level FlightAware
10:50PM 21.5000 -87.3270 138° Southeast 508 585 33,000  Level FlightAware
10:51PM 21.4470 -87.2740 137° Southeast 508 585 33,000  Level FlightAware
10:51PM 21.3840 -87.2120 137° Southeast 507 583 33,000  Level FlightAware
10:52PM 21.3220 -87.1510 137° Southeast 507 583 33,000  Level FlightAware
10:52PM 21.2610 -87.0900 137° Southeast 507 583 33,000  Level FlightAware
10:53PM 21.2050 -87.0350 138° Southeast 506 582 33,000  Level FlightAware
10:53PM 21.1420 -86.9740 138° Southeast 506 582 33,000  Level FlightAware
10:54PM 21.0770 -86.9100 137° Southeast 506 582 33,000  Level FlightAware
10:55PM 21.0240 -86.8580 138° Southeast 507 583 33,000  Level FlightAware
10:55PM 20.9590 -86.7950 138° Southeast 508 585 33,000  Level FlightAware
10:56PM 20.8970 -86.7340 137° Southeast 509 586 33,000  Level FlightAware
10:56PM 20.8410 -86.6810 139° Southeast 509 586 33,000  Level FlightAware
10:57PM 20.7780 -86.6190 137° Southeast 510 587 33,000  Level FlightAware
10:58PM 20.7140 -86.5570 138° Southeast 511 588 33,000  Level FlightAware
10:58PM 20.6590 -86.5040 138° Southeast 511 588 33,000  Level FlightAware
10:59PM 20.5910 -86.4380 138° Southeast 511 588 33,000  Level FlightAware
10:59PM 20.5330 -86.3820 138° Southeast 512 589 33,000  Level FlightAware
11:00PM 20.4620 -86.3120 137° Southeast 512 589 33,000  Level FlightAware
11:01PM 20.4090 -86.2600 137° Southeast 512 589 33,000  Level FlightAware
11:01PM 20.3340 -86.1880 138° Southeast 507 583 33,000  Level FlightAware
11:02PM 20.2810 -86.1360 137° Southeast 507 583 33,000  Level FlightAware
11:03PM 20.1890 -86.0510 139° Southeast 504 580 33,000  Level FlightAware
11:03PM 20.1310 -85.9960 138° Southeast 501 577 33,000  Level FlightAware
11:04PM 20.0660 -85.9340 138° Southeast 501 577 33,000  Level FlightAware
11:04PM 20.0110 -85.8810 138° Southeast 502 578 33,000  Level FlightAware
11:05PM 19.9470 -85.8210 139° Southeast 502 578 33,000  Level FlightAware
11:06PM 19.8850 -85.7620 138° Southeast 501 577 33,000  Level FlightAware
11:06PM 19.8230 -85.7040 139° Southeast 501 577 33,000  Level FlightAware
11:07PM 19.7670 -85.6510 138° Southeast 502 578 33,000  Level FlightAware
11:07PM 19.7050 -85.5920 138° Southeast 502 578 33,000  Level FlightAware
11:08PM 19.6350 -85.5270 139° Southeast 502 578 33,000  Level FlightAware
11:09PM 19.5480 -85.4450 138° Southeast 504 580 33,000  Level FlightAware
11:09PM 19.4770 -85.3790 139° Southeast 502 578 33,000  Level FlightAware
11:10PM 19.4080 -85.3140 138° Southeast 500 575 33,000  Level FlightAware
11:11PM 19.3520 -85.2620 139° Southeast 500 575 33,000  Level FlightAware
11:11PM 19.2970 -85.2100 138° Southeast 498 573 33,000  Level FlightAware
11:12PM 19.2390 -85.1550 138° Southeast 498 573 33,000  Level FlightAware
11:13PM 19.1860 -85.1050 138° Southeast 498 573 33,000  Level FlightAware
11:13PM 19.1340 -85.0550 138° Southeast 498 573 33,000  Level FlightAware
11:14PM 19.0810 -85.0050 138° Southeast 498 573 33,000  Level FlightAware
11:14PM 19.0260 -84.9520 138° Southeast 498 573 33,000  Level FlightAware
11:15PM 18.9740 -84.9020 138° Southeast 498 573 33,000  Level FlightAware
11:16PM 18.9210 -84.8530 139° Southeast 498 573 33,000  Level FlightAware
11:16PM 18.8690 -84.8030 138° Southeast 498 573 33,000  Level FlightAware
11:17PM 18.8170 -84.7530 138° Southeast 498 573 33,000  Level FlightAware
11:17PM 18.7640 -84.7030 138° Southeast 498 573 33,000  Level FlightAware
11:18PM 18.7120 -84.6530 138° Southeast 498 573 33,000  Level FlightAware
11:19PM 18.6590 -84.6030 138° Southeast 498 573 33,000  Level FlightAware
11:19PM 18.6070 -84.5540 138° Southeast 498 573 33,000  Level FlightAware
11:20PM 18.5550 -84.5040 138° Southeast 498 573 33,000  Level FlightAware
11:20PM 18.5010 -84.4530 138° Southeast 498 573 33,000  Level FlightAware
11:21PM 18.4480 -84.4030 138° Southeast 498 573 33,000  Level FlightAware
11:24PM 18.2009 -84.1611 137° Southeast  Level Estimated
11:25PM 18.1026 -84.0652 137° Southeast  Level Estimated
11:26PM 18.0043 -83.9694 137° Southeast  Level Estimated
11:27PM 17.9059 -83.8736 137° Southeast  Level Estimated
11:28PM 17.8075 -83.7780 137° Southeast  Level Estimated
11:29PM 17.7090 -83.6825 137° Southeast  Level Estimated
11:30PM 17.6105 -83.5871 137° Southeast  Level Estimated
11:31PM 17.5119 -83.4918 137° Southeast  Level Estimated
11:32PM 17.4133 -83.3967 137° Southeast  Level Estimated
11:33PM 17.3146 -83.3016 137° Southeast  Level Estimated
11:34PM 17.2160 -83.2066 137° Southeast  Level Estimated
11:35PM 17.1172 -83.1117 137° Southeast  Level Estimated
11:36PM 17.0184 -83.0169 137° Southeast  Level Estimated
11:37PM 16.9196 -82.9222 137° Southeast  Level Estimated
11:38PM 16.8207 -82.8277 138° Southeast  Level Estimated
11:39PM 16.7218 -82.7332 138° Southeast  Level Estimated
11:40PM 16.6228 -82.6388 138° Southeast  Level Estimated
11:41PM 16.5238 -82.5445 138° Southeast  Level Estimated
11:42PM 16.4248 -82.4503 138° Southeast  Level Estimated
11:43PM 16.3257 -82.3562 138° Southeast  Level Estimated
11:44PM 16.2266 -82.2622 138° Southeast  Level Estimated
11:45PM 16.1274 -82.1683 138° Southeast  Level Estimated
11:46PM 16.0282 -82.0745 138° Southeast  Level Estimated
11:47PM 15.9290 -81.9808 138° Southeast  Level Estimated
11:48PM 15.8297 -81.8871 138° Southeast  Level Estimated
11:49PM 15.7303 -81.7936 138° Southeast  Level Estimated
11:50PM 15.6310 -81.7002 138° Southeast  Level Estimated
11:51PM 15.5316 -81.6068 138° Southeast  Level Estimated
11:52PM 15.4321 -81.5136 138° Southeast  Level Estimated
11:53PM 15.3326 -81.4204 138° Southeast  Level Estimated
11:54PM 15.2331 -81.3273 138° Southeast  Level Estimated
11:55PM 15.1335 -81.2343 138° Southeast  Level Estimated
11:56PM 15.0339 -81.1414 138° Southeast  Level Estimated
11:57PM 14.9343 -81.0486 138° Southeast  Level Estimated
11:58PM 14.8346 -80.9558 138° Southeast  Level Estimated
11:59PM 14.7349 -80.8632 138° Southeast  Level Estimated
12:00AM 14.6351 -80.7706 138° Southeast  Level Estimated
12:01AM 14.5353 -80.6781 138° Southeast  Level Estimated
12:02AM 14.4355 -80.5857 138° Southeast  Level Estimated
12:03AM 14.3356 -80.4934 138° Southeast  Level Estimated
12:04AM 14.2357 -80.4012 138° Southeast  Level Estimated
12:05AM 14.1358 -80.3091 138° Southeast  Level Estimated
12:06AM 14.0358 -80.2170 138° Southeast  Level Estimated
12:07AM 13.9358 -80.1250 138° Southeast  Level Estimated
12:08AM 13.8358 -80.0331 138° Southeast  Level Estimated
12:09AM 13.7357 -79.9413 138° Southeast  Level Estimated
12:10AM 13.6356 -79.8495 138° Southeast  Level Estimated
12:11AM 13.5355 -79.7578 138° Southeast  Level Estimated
12:12AM 13.4353 -79.6662 138° Southeast  Level Estimated
12:13AM 13.3349 -79.5745 138° Southeast  Level Estimated
12:14AM 13.2345 -79.4829 138° Southeast  Level Estimated
12:15AM 13.1341 -79.3914 138° Southeast  Level Estimated
12:16AM 13.0336 -79.2999 138° Southeast  Level Estimated
12:17AM 12.9331 -79.2085 138° Southeast  Level Estimated
12:18AM 12.8325 -79.1172 138° Southeast  Level Estimated
12:19AM 12.7319 -79.0260 138° Southeast  Level Estimated
12:20AM 12.6313 -78.9348 139° Southeast  Level Estimated
12:21AM 12.5307 -78.8437 139° Southeast  Level Estimated
12:22AM 12.4300 -78.7527 139° Southeast  Level Estimated
12:23AM 12.3293 -78.6618 139° Southeast  Level Estimated
12:24AM 12.2286 -78.5709 139° Southeast  Level Estimated
12:25AM 12.1278 -78.4801 139° Southeast  Level Estimated
12:26AM 12.0270 -78.3893 139° Southeast  Level Estimated
12:27AM 11.9262 -78.2987 139° Southeast  Level Estimated
12:28AM 11.8254 -78.2080 139° Southeast  Level Estimated
12:29AM 11.7245 -78.1175 139° Southeast  Level Estimated
12:30AM 11.6236 -78.0270 139° Southeast  Level Estimated
12:31AM 11.5226 -77.9366 139° Southeast  Level Estimated
12:32AM 11.4217 -77.8463 139° Southeast  Level Estimated
12:33AM 11.3207 -77.7560 139° Southeast  Level Estimated
12:33AM 10.9660 -77.4210 139° Southeast 479 551 33,000  Level FlightAware
12:34AM 11.2197 -77.6658 139° Southeast  Level Estimated
12:34AM 10.9080 -77.3700 139° Southeast 477 549 33,000  Level FlightAware
12:35AM 10.8520 -77.3180 138° Southeast 471 542 33,000  Level FlightAware
12:35AM 10.7990 -77.2680 137° Southeast 469 540 33,000  Level FlightAware
12:36AM 10.7320 -77.2030 136° Southeast 470 541 33,000  Level FlightAware
12:37AM 10.6840 -77.1560 136° Southeast 470 541 33,000  Level FlightAware
12:37AM 10.6360 -77.1090 136° Southeast 470 541 33,000  Level FlightAware
12:38AM 10.5430 -77.0290 140° Southeast 468 539 33,000  Level FlightAware
12:38AM 10.4770 -76.9680 138° Southeast 535 616 33,000  Level FlightAware
12:39AM 10.4140 -76.9090 137° Southeast 466 536 33,000  Level FlightAware
12:40AM 10.3600 -76.8590 138° Southeast 466 536 33,000  Level FlightAware
12:40AM 10.3040 -76.8070 138° Southeast 468 539 33,000  Level FlightAware
12:41AM 10.2080 -76.7180 138° Southeast 475 547 33,000  Level FlightAware
12:42AM 10.1130 -76.6300 138° Southeast 476 548 33,000  Level FlightAware
12:43AM 10.0620 -76.5830 138° Southeast 476 548 33,000  Level FlightAware
12:43AM 10.0070 -76.5310 137° Southeast 475 547 33,000  Level FlightAware
12:44AM 9.9490 -76.4780 138° Southeast 475 547 33,000  Level FlightAware
12:45AM 9.8930 -76.4260 138° Southeast 476 548 33,000  Level FlightAware
12:45AM 9.8450 -76.3810 137° Southeast 476 548 33,000  Level FlightAware
12:46AM 9.7760 -76.3180 138° Southeast 476 548 33,000  Level FlightAware
12:46AM 9.7270 -76.2720 137° Southeast 475 547 33,000  Level FlightAware
12:47AM 9.6740 -76.2230 138° Southeast 466 536 33,000  Level FlightAware
12:47AM 9.6070 -76.1620 138° Southeast 472 543 33,000  Level FlightAware
12:48AM 9.5440 -76.1030 137° Southeast 471 542 33,000 300 Level FlightAware
12:49AM 9.4970 -76.0600 138° Southeast 473 544 33,400 1,080 Climbing FlightAware
12:49AM 9.4280 -75.9970 138° Southeast 474 545 34,300 1,080 Climbing FlightAware
12:50AM 9.3740 -75.9470 138° Southeast 477 549 34,800 600 Climbing FlightAware
12:50AM 9.3260 -75.9030 138° Southeast 476 548 35,000 180 Climbing FlightAware
12:51AM 9.2680 -75.8500 138° Southeast 476 548 35,000  Level FlightAware
12:52AM 9.2100 -75.7960 137° Southeast 476 548 35,000  Level FlightAware
12:52AM 9.1560 -75.7470 138° Southeast 474 545 35,000  Level FlightAware
12:53AM 9.0950 -75.6900 137° Southeast 476 548 35,000  Level FlightAware
12:53AM 9.0410 -75.6410 138° Southeast 476 548 35,000  Level FlightAware
12:54AM 8.9910 -75.5950 138° Southeast 476 548 35,000  Level FlightAware
12:55AM 8.9160 -75.5260 138° Southeast 475 547 35,000  Level FlightAware
12:55AM 8.8380 -75.4550 138° Southeast 474 545 35,000  Level FlightAware
12:56AM 8.7720 -75.3940 138° Southeast 474 545 35,000  Level FlightAware
12:57AM 8.7210 -75.3470 138° Southeast 474 545 35,000  Level FlightAware
12:57AM 8.6610 -75.2920 138° Southeast 473 544 35,000  Level FlightAware
12:58AM 8.6050 -75.2410 138° Southeast 474 545 35,000  Level FlightAware
12:58AM 8.5410 -75.1820 138° Southeast 474 545 35,000  Level FlightAware
12:59AM 8.4920 -75.1370 138° Southeast 472 543 35,000  Level FlightAware
12:59AM 8.4340 -75.0840 138° Southeast 473 544 35,000  Level FlightAware
01:00AM 8.3820 -75.0370 138° Southeast 473 544 35,000  Level FlightAware
01:01AM 8.3220 -74.9820 138° Southeast 473 544 35,000  Level FlightAware
01:01AM 8.2660 -74.9310 138° Southeast 474 545 35,000  Level FlightAware
01:02AM 8.2080 -74.8780 138° Southeast 472 543 35,000  Level FlightAware
01:02AM 8.1520 -74.8260 137° Southeast 474 545 35,000  Level FlightAware
01:03AM 8.0860 -74.7670 138° Southeast 474 545 35,000  Level FlightAware
01:04AM 8.0370 -74.7220 138° Southeast 474 545 35,000  Level FlightAware
01:04AM 7.9850 -74.6750 138° Southeast 473 544 35,000  Level FlightAware
01:05AM 7.9230 -74.6180 138° Southeast 471 542 35,000  Level FlightAware
01:05AM 7.8580 -74.5590 138° Southeast 468 539 35,000  Level FlightAware
01:06AM 7.8100 -74.5150 138° Southeast 467 537 35,000  Level FlightAware
01:06AM 7.7560 -74.4660 138° Southeast 467 537 35,000  Level FlightAware
01:07AM 7.6980 -74.4120 137° Southeast 469 540 35,000  Level FlightAware
01:08AM 7.6360 -74.3570 139° Southeast 470 541 35,000  Level FlightAware
01:08AM 7.5840 -74.3100 138° Southeast 470 541 35,000  Level FlightAware
01:09AM 7.5280 -74.2580 137° Southeast 470 541 35,000  Level FlightAware
01:09AM 7.4630 -74.2000 138° Southeast 469 540 35,000  Level FlightAware
01:10AM 7.4150 -74.1560 138° Southeast 467 537 35,000  Level FlightAware
01:11AM 7.3640 -74.1090 138° Southeast 468 539 35,000  Level FlightAware
01:11AM 7.3000 -74.0510 138° Southeast 469 540 35,000  Level FlightAware
01:12AM 7.2500 -74.0060 138° Southeast 469 540 35,000  Level FlightAware
01:13AM 7.1650 -73.9290 138° Southeast 35,000  Level FlightAware
01:13AM 7.0920 -73.8630 138° Southeast 468 539 35,000  Level FlightAware
01:14AM 7.0420 -73.8180 138° Southeast 468 539 35,000  Level FlightAware
01:15AM 6.9610 -73.7690 149° Southeast 470 541 35,000  Level FlightAware
01:15AM 6.8940 -73.7330 152° Southeast 470 541 35,000  Level FlightAware
01:16AM 6.8290 -73.6970 151° Southeast 471 542 35,000  Level FlightAware
01:16AM 6.7580 -73.6590 152° Southeast 471 542 35,000  Level FlightAware
01:17AM 6.6900 -73.6220 152° Southeast 472 543 35,000  Level FlightAware
01:17AM 6.6220 -73.5850 152° Southeast 471 542 35,000  Level FlightAware
01:18AM 6.5540 -73.5490 152° Southeast 470 541 35,000  Level FlightAware
01:19AM 6.4860 -73.5120 152° Southeast 471 542 35,000  Level FlightAware
01:19AM 6.4160 -73.4740 152° Southeast 472 543 35,000  Level FlightAware
01:20AM 6.3560 -73.4420 152° Southeast 472 543 35,000  Level FlightAware
01:20AM 6.2860 -73.4040 152° Southeast 471 542 35,000  Level FlightAware
01:21AM 6.2160 -73.3660 152° Southeast 471 542 35,000  Level FlightAware
01:22AM 6.1460 -73.3280 152° Southeast 471 542 35,000  Level FlightAware
01:22AM 6.0880 -73.2960 151° Southeast 471 542 35,000  Level FlightAware
01:23AM 6.0290 -73.2640 152° Southeast 471 542 35,000  Level FlightAware
01:23AM 5.9710 -73.2310 150° Southeast 471 542 35,000  Level FlightAware
01:24AM 5.9110 -73.1980 151° Southeast 471 542 35,000  Level FlightAware
01:25AM 5.8530 -73.1650 150° Southeast 471 542 35,000  Level FlightAware
01:25AM 5.7940 -73.1330 152° Southeast 471 542 35,000  Level FlightAware
01:26AM 5.7360 -73.1000 150° Southeast 471 542 35,000  Level FlightAware
01:26AM 5.6290 -73.0350 149° Southeast 469 540 35,000  Level FlightAware
01:27AM 5.5710 -72.9920 144° Southeast 470 541 35,000  Level FlightAware
01:27AM 5.5070 -72.9440 143° Southeast 471 542 35,000  Level FlightAware
01:28AM 5.4450 -72.8980 144° Southeast 472 543 35,000  Level FlightAware
01:28AM 5.3870 -72.8530 142° Southeast 473 544 35,000  Level FlightAware
01:29AM 5.3230 -72.8050 143° Southeast 472 543 35,000  Level FlightAware
01:30AM 5.2620 -72.7580 143° Southeast 471 542 35,000  Level FlightAware
01:30AM 5.1990 -72.7110 143° Southeast 471 542 35,000  Level FlightAware
01:31AM 5.1440 -72.6670 141° Southeast 471 542 35,000  Level FlightAware
01:31AM 5.0910 -72.6260 142° Southeast 471 542 35,000  Level FlightAware
01:32AM 5.0390 -72.5850 142° Southeast 471 542 35,000  Level FlightAware
01:33AM 4.9860 -72.5440 142° Southeast 471 542 35,000  Level FlightAware
01:33AM 4.9340 -72.5030 142° Southeast 471 542 35,000  Level FlightAware
01:34AM 4.8800 -72.4600 142° Southeast 471 542 35,000  Level FlightAware
01:34AM 4.8270 -72.4190 142° Southeast 471 542 35,000  Level FlightAware
01:35AM 4.7740 -72.3780 142° Southeast 471 542 35,000  Level FlightAware
01:36AM 4.7220 -72.3370 142° Southeast 471 542 35,000  Level FlightAware
01:36AM 4.6690 -72.2950 142° Southeast 471 542 35,000  Level FlightAware
01:37AM 4.6170 -72.2540 142° Southeast 471 542 35,000  Level FlightAware
01:37AM 4.5640 -72.2130 142° Southeast 471 542 35,000  Level FlightAware
01:38AM 4.5120 -72.1720 142° Southeast 471 542 35,000  Level FlightAware
01:39AM 4.4590 -72.1310 142° Southeast 471 542 35,000  Level FlightAware
01:39AM 4.4070 -72.0890 141° Southeast 471 542 35,000  Level FlightAware
01:40AM 4.3540 -72.0480 142° Southeast 471 542 35,000  Level FlightAware
01:42AM 4.1851 -71.9020 139° Southeast  Level Estimated
01:43AM 4.0838 -71.8144 139° Southeast  Level Estimated
01:44AM 3.9824 -71.7268 139° Southeast  Level Estimated
01:45AM 3.8810 -71.6393 139° Southeast  Level Estimated
01:46AM 3.7796 -71.5517 139° Southeast  Level Estimated
01:47AM 3.6783 -71.4642 139° Southeast  Level Estimated
01:48AM 3.5769 -71.3768 139° Southeast  Level Estimated
01:49AM 3.4755 -71.2893 139° Southeast  Level Estimated
01:50AM 3.3741 -71.2019 139° Southeast  Level Estimated
01:51AM 3.2726 -71.1144 139° Southeast  Level Estimated
01:52AM 3.1712 -71.0270 139° Southeast  Level Estimated
01:53AM 3.0698 -70.9396 139° Southeast  Level Estimated
01:54AM 2.9683 -70.8522 139° Southeast  Level Estimated
01:55AM 2.8669 -70.7649 139° Southeast  Level Estimated
01:56AM 2.7654 -70.6775 139° Southeast  Level Estimated
01:57AM 2.6640 -70.5902 139° Southeast  Level Estimated
01:58AM 2.5625 -70.5029 139° Southeast  Level Estimated
01:59AM 2.4610 -70.4156 139° Southeast  Level Estimated
02:00AM 2.3596 -70.3283 139° Southeast  Level Estimated
02:01AM 2.2581 -70.2410 139° Southeast  Level Estimated
02:02AM 2.1566 -70.1538 139° Southeast  Level Estimated
02:03AM 2.0551 -70.0665 139° Southeast  Level Estimated
02:04AM 1.9536 -69.9793 139° Southeast  Level Estimated
02:05AM 1.8521 -69.8920 139° Southeast  Level Estimated
02:06AM 1.7506 -69.8048 139° Southeast  Level Estimated
02:07AM 1.6491 -69.7176 139° Southeast  Level Estimated
02:08AM 1.5476 -69.6304 139° Southeast  Level Estimated
02:09AM 1.4460 -69.5432 139° Southeast  Level Estimated
02:10AM 1.3445 -69.4560 139° Southeast  Level Estimated
02:11AM 1.2430 -69.3689 139° Southeast  Level Estimated
02:12AM 1.1415 -69.2817 139° Southeast  Level Estimated
02:13AM 1.0399 -69.1945 139° Southeast  Level Estimated
02:14AM 0.9384 -69.1074 139° Southeast  Level Estimated
02:15AM 0.8369 -69.0202 139° Southeast  Level Estimated
02:16AM 0.7353 -68.9331 139° Southeast  Level Estimated
02:17AM 0.6338 -68.8459 139° Southeast  Level Estimated
02:18AM 0.5322 -68.7588 139° Southeast  Level Estimated
02:19AM 0.4307 -68.6716 139° Southeast  Level Estimated
02:20AM 0.3292 -68.5845 139° Southeast  Level Estimated
02:21AM 0.2276 -68.4973 139° Southeast  Level Estimated
02:22AM 0.1261 -68.4102 139° Southeast  Level Estimated
02:23AM 0.0245 -68.3231 139° Southeast  Level Estimated
02:24AM -0.0770 -68.2359 139° Southeast  Level Estimated
02:25AM -0.1786 -68.1488 139° Southeast  Level Estimated
02:26AM -0.2801 -68.0617 139° Southeast  Level Estimated
02:27AM -0.3817 -67.9745 139° Southeast  Level Estimated
02:28AM -0.4832 -67.8874 139° Southeast  Level Estimated
02:29AM -0.5847 -67.8003 139° Southeast  Level Estimated
02:30AM -0.6863 -67.7131 139° Southeast  Level Estimated
02:31AM -0.7878 -67.6260 139° Southeast  Level Estimated
02:32AM -0.8893 -67.5388 139° Southeast  Level Estimated
02:33AM -0.9909 -67.4517 139° Southeast  Level Estimated
02:34AM -1.0924 -67.3645 139° Southeast  Level Estimated
02:35AM -1.1940 -67.2773 139° Southeast  Level Estimated
02:36AM -1.2955 -67.1901 139° Southeast  Level Estimated
02:37AM -1.3970 -67.1030 139° Southeast  Level Estimated
02:38AM -1.4985 -67.0158 139° Southeast  Level Estimated
02:39AM -1.6000 -66.9286 139° Southeast  Level Estimated
02:40AM -1.7017 -66.8412 139° Southeast  Level Estimated
02:41AM -1.8034 -66.7539 139° Southeast  Level Estimated
02:42AM -1.9051 -66.6665 139° Southeast  Level Estimated
02:43AM -2.0068 -66.5791 139° Southeast  Level Estimated
02:44AM -2.1085 -66.4917 139° Southeast  Level Estimated
02:45AM -2.2102 -66.4043 139° Southeast  Level Estimated
02:46AM -2.3118 -66.3168 139° Southeast  Level Estimated
02:47AM -2.4135 -66.2294 139° Southeast  Level Estimated
02:48AM -2.5151 -66.1420 139° Southeast  Level Estimated
02:49AM -2.6168 -66.0545 139° Southeast  Level Estimated
02:50AM -2.7184 -65.9670 139° Southeast  Level Estimated
02:51AM -2.8201 -65.8795 139° Southeast  Level Estimated
02:52AM -2.9217 -65.7920 139° Southeast  Level Estimated
02:53AM -3.0233 -65.7045 139° Southeast  Level Estimated
02:54AM -3.1250 -65.6169 139° Southeast  Level Estimated
02:55AM -3.2264 -65.5295 139° Southeast  Level Estimated
02:56AM -3.3278 -65.4421 139° Southeast  Level Estimated
02:57AM -3.4292 -65.3547 139° Southeast  Level Estimated
02:58AM -3.5306 -65.2672 139° Southeast  Level Estimated
02:59AM -3.6320 -65.1797 139° Southeast  Level Estimated
03:00AM -3.7334 -65.0922 139° Southeast  Level Estimated
03:01AM -3.8348 -65.0047 139° Southeast  Level Estimated
03:02AM -3.9362 -64.9172 139° Southeast  Level Estimated
03:03AM -4.0375 -64.8296 139° Southeast  Level Estimated
03:04AM -4.1389 -64.7420 139° Southeast  Level Estimated
03:05AM -4.2402 -64.6544 139° Southeast  Level Estimated
03:06AM -4.3415 -64.5668 139° Southeast  Level Estimated
03:07AM -4.4429 -64.4792 139° Southeast  Level Estimated
03:08AM -4.5442 -64.3915 139° Southeast  Level Estimated
03:09AM -4.6455 -64.3038 139° Southeast  Level Estimated
03:10AM -4.7468 -64.2161 139° Southeast  Level Estimated
03:11AM -4.8481 -64.1283 139° Southeast  Level Estimated
03:12AM -4.9495 -64.0404 139° Southeast  Level Estimated
03:13AM -5.0509 -63.9524 139° Southeast  Level Estimated
03:14AM -5.1524 -63.8644 139° Southeast  Level Estimated
03:15AM -5.2538 -63.7764 139° Southeast  Level Estimated
03:16AM -5.3552 -63.6884 139° Southeast  Level Estimated
03:17AM -5.4566 -63.6003 139° Southeast  Level Estimated
03:18AM -5.5580 -63.5122 139° Southeast  Level Estimated
03:19AM -5.6593 -63.4241 139° Southeast  Level Estimated
03:20AM -5.7607 -63.3359 139° Southeast  Level Estimated
03:21AM -5.8620 -63.2477 139° Southeast  Level Estimated
03:22AM -5.9633 -63.1595 139° Southeast  Level Estimated
03:23AM -6.0647 -63.0713 139° Southeast  Level Estimated
03:24AM -6.1660 -62.9830 139° Southeast  Level Estimated
03:25AM -6.2672 -62.8946 139° Southeast  Level Estimated
03:26AM -6.3685 -62.8063 139° Southeast  Level Estimated
03:27AM -6.4698 -62.7179 139° Southeast  Level Estimated
03:28AM -6.5710 -62.6295 139° Southeast  Level Estimated
03:29AM -6.6722 -62.5410 139° Southeast  Level Estimated
03:30AM -6.7734 -62.4525 139° Southeast  Level Estimated
03:31AM -6.8746 -62.3639 139° Southeast  Level Estimated
03:32AM -6.9758 -62.2754 139° Southeast  Level Estimated
03:33AM -7.0770 -62.1867 139° Southeast  Level Estimated
03:34AM -7.1781 -62.0981 139° Southeast  Level Estimated
03:35AM -7.2792 -62.0094 139° Southeast  Level Estimated
03:36AM -7.3803 -61.9207 139° Southeast  Level Estimated
03:37AM -7.4814 -61.8319 139° Southeast  Level Estimated
03:38AM -7.5825 -61.7431 139° Southeast  Level Estimated
03:39AM -7.6835 -61.6542 139° Southeast  Level Estimated
03:40AM -7.7846 -61.5653 139° Southeast  Level Estimated
03:41AM -7.8856 -61.4764 139° Southeast  Level Estimated
03:42AM -7.9866 -61.3874 139° Southeast  Level Estimated
03:43AM -8.0876 -61.2983 139° Southeast  Level Estimated
03:44AM -8.1885 -61.2093 139° Southeast  Level Estimated
03:45AM -8.2895 -61.1201 139° Southeast  Level Estimated
03:46AM -8.3904 -61.0310 139° Southeast  Level Estimated
03:47AM -8.4913 -60.9418 139° Southeast  Level Estimated
03:48AM -8.5922 -60.8525 139° Southeast  Level Estimated
03:49AM -8.6930 -60.7632 139° Southeast  Level Estimated
03:50AM -8.7939 -60.6738 139° Southeast  Level Estimated
03:51AM -8.8947 -60.5844 139° Southeast  Level Estimated
03:52AM -8.9955 -60.4950 139° Southeast  Level Estimated
03:53AM -9.0962 -60.4055 139° Southeast  Level Estimated
03:54AM -9.1970 -60.3159 139° Southeast  Level Estimated
03:55AM -9.2977 -60.2263 139° Southeast  Level Estimated
03:56AM -9.3984 -60.1367 139° Southeast  Level Estimated
03:57AM -9.4991 -60.0470 139° Southeast  Level Estimated
03:58AM -9.5998 -59.9572 139° Southeast  Level Estimated
03:59AM -9.7004 -59.8674 139° Southeast  Level Estimated
04:00AM -9.8011 -59.7775 139° Southeast  Level Estimated
04:01AM -9.9016 -59.6876 139° Southeast  Level Estimated
04:02AM -10.0020 -59.5978 139° Southeast  Level Estimated
04:03AM -10.1024 -59.5079 139° Southeast  Level Estimated
04:04AM -10.2027 -59.4180 139° Southeast  Level Estimated
04:05AM -10.3030 -59.3280 139° Southeast  Level Estimated
04:06AM -10.4033 -59.2380 139° Southeast  Level Estimated
04:07AM -10.5036 -59.1479 139° Southeast  Level Estimated
04:08AM -10.6038 -59.0577 139° Southeast  Level Estimated
04:09AM -10.7040 -58.9675 139° Southeast  Level Estimated
04:10AM -10.8042 -58.8772 138° Southeast  Level Estimated
04:11AM -10.9044 -58.7869 138° Southeast  Level Estimated
04:12AM -11.0045 -58.6965 138° Southeast  Level Estimated
04:13AM -11.1046 -58.6060 138° Southeast  Level Estimated
04:14AM -11.2047 -58.5155 138° Southeast  Level Estimated
04:15AM -11.3048 -58.4249 138° Southeast  Level Estimated
04:16AM -11.4048 -58.3343 138° Southeast  Level Estimated
04:17AM -11.5048 -58.2435 138° Southeast  Level Estimated
04:18AM -11.6048 -58.1528 138° Southeast  Level Estimated
04:19AM -11.7047 -58.0619 138° Southeast  Level Estimated
04:20AM -11.8046 -57.9710 138° Southeast  Level Estimated
04:21AM -11.9045 -57.8800 138° Southeast  Level Estimated
04:22AM -12.0043 -57.7890 138° Southeast  Level Estimated
04:23AM -12.1042 -57.6979 138° Southeast  Level Estimated
04:24AM -12.2040 -57.6067 138° Southeast  Level Estimated
04:25AM -12.3038 -57.5155 138° Southeast  Level Estimated
04:26AM -12.4035 -57.4242 138° Southeast  Level Estimated
04:27AM -12.5032 -57.3328 138° Southeast  Level Estimated
04:28AM -12.6029 -57.2413 138° Southeast  Level Estimated
04:29AM -12.7025 -57.1498 138° Southeast  Level Estimated
04:30AM -12.8021 -57.0582 138° Southeast  Level Estimated
04:31AM -12.9017 -56.9665 138° Southeast  Level Estimated
04:32AM -13.0013 -56.8748 138° Southeast  Level Estimated
04:33AM -13.1008 -56.7830 138° Southeast  Level Estimated
04:34AM -13.2002 -56.6911 138° Southeast  Level Estimated
04:35AM -13.2997 -56.5991 138° Southeast  Level Estimated
04:36AM -13.3991 -56.5071 138° Southeast  Level Estimated
04:37AM -13.4985 -56.4150 138° Southeast  Level Estimated
04:38AM -13.5978 -56.3228 138° Southeast  Level Estimated
04:39AM -13.6972 -56.2305 138° Southeast  Level Estimated
04:40AM -13.7964 -56.1381 138° Southeast  Level Estimated
04:41AM -13.8957 -56.0457 138° Southeast  Level Estimated
04:42AM -13.9949 -55.9532 138° Southeast  Level Estimated
04:43AM -14.0941 -55.8606 138° Southeast  Level Estimated
04:44AM -14.1932 -55.7679 138° Southeast  Level Estimated
04:45AM -14.2923 -55.6752 138° Southeast  Level Estimated
04:46AM -14.3914 -55.5824 138° Southeast  Level Estimated
04:47AM -14.4904 -55.4894 138° Southeast  Level Estimated
04:48AM -14.5894 -55.3965 138° Southeast  Level Estimated
04:49AM -14.6884 -55.3034 138° Southeast  Level Estimated
04:50AM -14.7873 -55.2102 138° Southeast  Level Estimated
04:51AM -14.8862 -55.1170 138° Southeast  Level Estimated
04:52AM -14.9851 -55.0236 138° Southeast  Level Estimated
04:53AM -15.0839 -54.9302 138° Southeast  Level Estimated
04:54AM -15.1826 -54.8367 138° Southeast  Level Estimated
04:55AM -15.2814 -54.7431 138° Southeast  Level Estimated
04:56AM -15.3801 -54.6494 138° Southeast  Level Estimated
04:57AM -15.4787 -54.5557 138° Southeast  Level Estimated
04:58AM -15.5774 -54.4618 137° Southeast  Level Estimated
04:59AM -15.6763 -54.3675 137° Southeast  Level Estimated
05:00AM -15.7752 -54.2731 137° Southeast  Level Estimated
05:01AM -15.8740 -54.1787 137° Southeast  Level Estimated
05:02AM -15.9728 -54.0841 137° Southeast  Level Estimated
05:03AM -16.0716 -53.9894 137° Southeast  Level Estimated
05:04AM -16.1703 -53.8947 137° Southeast  Level Estimated
05:05AM -16.2690 -53.7998 137° Southeast  Level Estimated
05:06AM -16.3677 -53.7049 137° Southeast  Level Estimated
05:07AM -16.4663 -53.6099 137° Southeast  Level Estimated
05:08AM -16.5648 -53.5147 137° Southeast  Level Estimated
05:09AM -16.6633 -53.4195 137° Southeast  Level Estimated
05:10AM -16.7618 -53.3242 137° Southeast  Level Estimated
05:11AM -16.8602 -53.2287 137° Southeast  Level Estimated
05:12AM -16.9586 -53.1332 137° Southeast  Level Estimated
05:13AM -17.0570 -53.0376 137° Southeast  Level Estimated
05:14AM -17.1553 -52.9418 137° Southeast  Level Estimated
05:15AM -17.2535 -52.8460 137° Southeast  Level Estimated
05:16AM -17.3517 -52.7501 137° Southeast  Level Estimated
05:17AM -17.4499 -52.6540 137° Southeast  Level Estimated
05:18AM -17.5480 -52.5579 137° Southeast  Level Estimated
05:19AM -17.6460 -52.4617 137° Southeast  Level Estimated
05:20AM -17.7440 -52.3653 137° Southeast  Level Estimated
05:21AM -17.8420 -52.2688 137° Southeast  Level Estimated
05:22AM -17.9399 -52.1723 137° Southeast  Level Estimated
05:23AM -18.0378 -52.0756 137° Southeast  Level Estimated
05:23AM -19.0590 -50.6080 137° Southeast 512 589 35,000  Level FlightAware
05:23AM -19.1180 -50.5440 134° Southeast 512 589 35,000  Level FlightAware
05:24AM -18.1357 -51.9788 137° Southeast  Level Estimated
05:24AM -19.1700 -50.4870 134° Southeast 513 590 35,000  Level FlightAware
05:25AM -19.2310 -50.4210 134° Southeast 514 592 35,000  Level FlightAware
05:25AM -19.2920 -50.3550 134° Southeast 513 590 35,000  Level FlightAware
05:26AM -19.3410 -50.3010 134° Southeast 513 590 35,000  Level FlightAware
05:26AM -19.4040 -50.2330 134° Southeast 513 590 35,000  Level FlightAware
05:27AM -19.4630 -50.1680 134° Southeast 513 590 35,000  Level FlightAware
05:27AM -19.5190 -50.1070 134° Southeast 514 592 35,000  Level FlightAware
05:28AM -19.5780 -50.0430 134° Southeast 514 592 35,000  Level FlightAware
05:29AM -19.6360 -49.9790 134° Southeast 512 589 35,000  Level FlightAware
05:29AM -19.6910 -49.9180 134° Southeast 512 589 35,000  Level FlightAware
05:30AM -19.7530 -49.8500 134° Southeast 513 590 35,000  Level FlightAware
05:30AM -19.8130 -49.7850 134° Southeast 514 592 35,000  Level FlightAware
05:31AM -19.8690 -49.7230 134° Southeast 514 592 35,000  Level FlightAware
05:32AM -19.9210 -49.6650 134° Southeast 513 590 35,000  Level FlightAware
05:32AM -19.9860 -49.5950 135° Southeast 512 589 35,000  Level FlightAware
05:33AM -20.0430 -49.5310 133° Southeast 512 589 35,000  Level FlightAware
05:33AM -20.0970 -49.4720 134° Southeast 512 589 35,000  Level FlightAware
05:34AM -20.1560 -49.4070 134° Southeast 511 588 35,000  Level FlightAware
05:35AM -20.2150 -49.3410 134° Southeast 512 589 35,000  Level FlightAware
05:35AM -20.2740 -49.2760 134° Southeast 512 589 35,000  Level FlightAware
05:36AM -20.3270 -49.2170 134° Southeast 512 589 35,000  Level FlightAware
05:36AM -20.3850 -49.1520 134° Southeast 512 589 35,000  Level FlightAware
05:37AM -20.4440 -49.0870 134° Southeast 511 588 35,000  Level FlightAware
05:37AM -20.5030 -49.0210 134° Southeast 509 586 35,000  Level FlightAware
05:38AM -20.5560 -48.9620 134° Southeast 509 586 35,000  Level FlightAware
05:39AM -20.6130 -48.8980 134° Southeast 508 585 35,000  Level FlightAware
05:39AM -20.6710 -48.8340 134° Southeast 506 582 35,000  Level FlightAware
05:40AM -20.7300 -48.7680 134° Southeast 505 581 35,000  Level FlightAware
05:40AM -20.7800 -48.7120 134° Southeast 505 581 35,000  Level FlightAware
05:41AM -20.8420 -48.6420 133° Southeast 506 582 35,000  Level FlightAware
05:41AM -20.8950 -48.5830 134° Southeast 510 587 35,000  Level FlightAware
05:42AM -20.9530 -48.5180 134° Southeast 512 589 35,000  Level FlightAware
05:43AM -21.0140 -48.4480 133° Southeast 513 590 35,000  Level FlightAware
05:43AM -21.0620 -48.3950 134° Southeast 514 592 35,000  Level FlightAware
05:44AM -21.1250 -48.3230 133° Southeast 512 589 35,000  Level FlightAware
05:44AM -21.1880 -48.2630 138° Southeast 512 589 35,000  Level FlightAware
05:45AM -21.2550 -48.2040 141° Southeast 513 590 35,000  Level FlightAware
05:46AM -21.3140 -48.1550 142° Southeast 513 590 35,000  Level FlightAware
05:46AM -21.3790 -48.1010 142° Southeast 513 590 35,000  Level FlightAware
05:47AM -21.4490 -48.0430 142° Southeast 513 590 35,000  Level FlightAware
05:47AM -21.5160 -47.9870 142° Southeast 512 589 35,000  Level FlightAware
05:48AM -21.5760 -47.9370 142° Southeast 511 588 35,000  Level FlightAware
05:48AM -21.6450 -47.8800 142° Southeast 511 588 35,000 -540 Level FlightAware
05:49AM -21.7120 -47.8240 142° Southeast 516 594 34,400 -1,080 Descending FlightAware
05:50AM -21.7760 -47.7710 142° Southeast 515 593 33,800 -960 Descending FlightAware
05:50AM -21.8440 -47.7140 142° Southeast 507 583 33,300 -1,140 Descending FlightAware
05:51AM -21.9060 -47.6620 142° Southeast 495 570 32,500 -1,680 Descending FlightAware
05:51AM -21.9690 -47.6090 142° Southeast 482 555 31,400 -1,860 Descending FlightAware
05:52AM -22.0330 -47.5560 142° Southeast 468 539 30,300 -1,860 Descending FlightAware
05:53AM -22.0930 -47.5060 142° Southeast 455 524 29,200 -1,860 Descending FlightAware
05:53AM -22.1470 -47.4610 142° Southeast 444 511 28,200 -1,860 Descending FlightAware
05:54AM -22.2000 -47.4160 142° Southeast 434 499 27,200 -1,800 Descending FlightAware
05:54AM -22.2590 -47.3660 142° Southeast 423 487 26,100 -1,740 Descending FlightAware
05:55AM -22.3160 -47.3180 142° Southeast 414 476 25,100 -1,680 Descending FlightAware
05:55AM -22.3630 -47.2790 143° Southeast 406 467 24,200 -1,680 Descending FlightAware
05:56AM -22.4130 -47.2360 142° Southeast 399 459 23,300 -1,860 Descending FlightAware
05:57AM -22.4690 -47.1890 142° Southeast 396 456 22,000 -1,980 Descending FlightAware
05:57AM -22.5120 -47.1530 142° Southeast 405 466 21,100 -1,440 Descending FlightAware
05:58AM -22.5700 -47.1060 143° Southeast 406 467 20,400 -1,500 Descending FlightAware
05:58AM -22.6300 -47.0750 155° Southeast 397 457 19,300 -1,860 Descending FlightAware
05:59AM -22.6940 -47.0480 159° South 392 451 18,200 -1,800 Descending FlightAware
06:00AM -22.7440 -47.0280 160° South 387 445 17,300 -1,800 Descending FlightAware
06:00AM -22.8060 -47.0020 159° South 381 438 16,200 -1,800 Descending FlightAware
06:01AM -22.8630 -46.9780 159° South 378 435 15,200 -1,860 Descending FlightAware
06:01AM -22.9180 -46.9540 158° South 376 433 14,100 -1,920 Descending FlightAware
06:02AM -22.9770 -46.9300 159° South 372 428 13,000 -1,680 Descending FlightAware
06:03AM -23.0340 -46.9060 159° South 360 414 12,100 -1,440 Descending FlightAware
06:03AM -23.0890 -46.8830 159° South 351 404 11,300 -1,260 Descending FlightAware
06:04AM -23.1360 -46.8630 159° South 335 386 10,700 -1,020 Descending FlightAware
06:04AM -23.1850 -46.8420 158° South 321 369 10,200 -780 Descending FlightAware
06:05AM -23.2170 -46.8280 158° South 305 351 10,000 -300 Descending FlightAware
06:05AM -23.2420 -46.8180 160° South 289 333 10,000 -600 Level FlightAware
06:05AM -23.2670 -46.8070 158° South 284 327 9,600 -1,200 Descending FlightAware
06:06AM -23.2940 -46.7960 159° South 282 325 9,200 -1,200 Descending FlightAware
06:06AM -23.3230 -46.7840 159° South 279 321 8,700 -1,200 Descending FlightAware
06:06AM -23.3380 -46.7770 157° South 277 319 8,500 -1,140 Descending FlightAware
06:07AM -23.3610 -46.7670 158° South 276 318 8,100 -1,500 Descending FlightAware
06:07AM -23.3860 -46.7500 148° Southeast 276 318 7,400 -1,500 Descending FlightAware
06:07AM -23.4060 -46.7310 139° Southeast 265 305 7,000 -1,380 Descending FlightAware
06:08AM -23.4240 -46.7140 139° Southeast 255 293 6,500 -1,680 Descending FlightAware
06:08AM -23.4420 -46.6970 139° Southeast 255 293 5,900 -1,740 Descending FlightAware
06:08AM -23.4480 -46.6890 129° Southeast 255 293 5,700 -1,500 Descending FlightAware
06:08AM -23.4530 -46.6810 124° Southeast 254 292 5,500 -1,080 Descending FlightAware
06:09AM -23.4630 -46.6570 114° Southeast 252 290 5,200 -480 Descending FlightAware
06:09AM -23.4720 -46.6350 114° Southeast 236 272 5,200  Level FlightAware
06:09AM -23.4760 -46.6200 106° East 227 261 5,200  Level FlightAware
06:09AM -23.4700 -46.6010 71° East 200 230 5,200  Level FlightAware
06:10AM -23.4650 -46.5820 74° East 181 208 5,200 -1,080 Level FlightAware
06:10AM -23.4590 -46.5620 72° East 169 194 4,400 -2,220 Descending FlightAware
06:10AM -23.4560 -46.5490 76° East 171 197 3,800 -2,040 Descending FlightAware
06:11AM -23.4510 -46.5310 73° East 158 182 3,000 -1,440 Descending FlightAware
06:11AM -23.4450 -46.5100 73° East 148 170 2,600 -900 Descending FlightAware
06:12AM -23.4390 -46.4890 73° East 139 160 2,200 -660 Descending FlightAware
06:12AM -23.4360 -46.4780 73° East 136 157 2,100 -180 Descending FlightAware
06:13AM -23.4320 -46.4640 73° East 136 157 2,100  Level FlightAware